Time;durP1;ratioP1;P1;durP2;ratioP2;P2;SDS_P1;SDS_P2;PMS_P1;PMS_P2;Temp;Humidity;BMP_temperature;BMP_pressure;BME280_temperature;BME280_humidity;BME280_pressure;Samples;Min_cycle;Max_cycle;Signal;HPM_P1;HPM_P2
2023/08/31 00:01:54;;;;;;;12.45;7.40;;;14.10;99.90;;;;;;5030093;28;20060;-79
2023/08/31 00:04:20;;;;;;;8.68;6.78;;;14.10;99.90;;;;;;5028992;28;20472;-78
2023/08/31 00:06:46;;;;;;;9.60;6.97;;;14.10;99.90;;;;;;5028608;28;20024;-79
2023/08/31 00:09:12;;;;;;;11.30;7.22;;;14.10;99.90;;;;;;5028561;28;20044;-78
2023/08/31 00:11:38;;;;;;;14.30;7.45;;;14.10;99.90;;;;;;5028137;28;20017;-78
2023/08/31 00:14:04;;;;;;;17.65;8.02;;;14.10;99.90;;;;;;5028648;28;20029;-80
2023/08/31 00:16:30;;;;;;;10.50;7.15;;;14.10;99.90;;;;;;5028680;28;20022;-78
2023/08/31 00:18:59;;;;;;;18.25;8.55;;;14.10;99.90;;;;;;5028354;28;20162;-78
2023/08/31 00:21:25;;;;;;;17.58;8.45;;;14.00;99.90;;;;;;5027974;28;20053;-80
2023/08/31 00:23:50;;;;;;;15.82;9.10;;;14.00;99.90;;;;;;5028335;28;20478;-80
2023/08/31 00:26:16;;;;;;;16.15;9.30;;;14.00;99.90;;;;;;5027911;28;20025;-78
2023/08/31 00:28:42;;;;;;;13.73;8.82;;;14.00;99.90;;;;;;5028184;28;20053;-78
2023/08/31 00:31:08;;;;;;;15.38;9.32;;;13.90;99.90;;;;;;5028236;28;20032;-78
2023/08/31 00:33:34;;;;;;;15.50;10.23;;;13.90;99.90;;;;;;5029367;28;20557;-78
2023/08/31 00:36:03;;;;;;;15.60;9.18;;;13.90;99.90;;;;;;5027768;28;20077;-80
2023/08/31 00:38:29;;;;;;;18.13;9.45;;;13.90;99.90;;;;;;5016889;28;20026;-80
2023/08/31 00:40:55;;;;;;;16.33;9.23;;;13.90;99.90;;;;;;5028151;28;20022;-80
2023/08/31 00:43:21;;;;;;;12.18;8.38;;;13.90;99.90;;;;;;5027919;28;20022;-78
2023/08/31 00:45:48;;;;;;;14.80;9.38;;;13.90;99.90;;;;;;5027856;28;20102;-78
2023/08/31 00:48:18;;;;;;;14.55;8.27;;;13.90;99.90;;;;;;5029038;28;20063;-80
2023/08/31 00:50:47;;;;;;;14.77;9.55;;;13.90;99.90;;;;;;5040707;28;20041;-80
2023/08/31 00:53:14;;;;;;;17.40;9.40;;;13.90;99.90;;;;;;5022133;28;20041;-78
2023/08/31 00:55:40;;;;;;;17.77;10.38;;;13.90;99.90;;;;;;5032503;28;20018;-78
2023/08/31 00:58:07;;;;;;;13.98;9.10;;;13.90;99.90;;;;;;5030162;28;20029;-78
2023/08/31 01:00:56;;;;;;;14.43;8.98;;;13.90;99.90;;;;;;5015638;28;20108;-77
2023/08/31 01:03:39;;;;;;;18.00;10.52;;;13.90;99.90;;;;;;5022924;28;20065;-80
2023/08/31 01:06:31;;;;;;;17.88;10.50;;;13.90;99.90;;;;;;5027934;28;20048;-78
2023/08/31 01:09:07;;;;;;;21.05;11.43;;;13.90;99.90;;;;;;5027879;28;20018;-79
2023/08/31 01:11:45;;;;;;;18.55;10.30;;;13.90;99.90;;;;;;5027213;28;20036;-78
2023/08/31 01:14:18;;;;;;;19.92;10.57;;;13.90;99.90;;;;;;5041202;28;20037;-80
2023/08/31 01:16:48;;;;;;;19.33;10.25;;;13.90;99.90;;;;;;5031546;28;20075;-77
2023/08/31 01:19:42;;;;;;;13.95;9.35;;;13.90;99.90;;;;;;5034509;28;20030;-79
2023/08/31 01:22:14;;;;;;;17.20;10.05;;;13.90;99.90;;;;;;5013280;28;20033;-77
2023/08/31 01:24:40;;;;;;;17.77;11.45;;;13.90;99.90;;;;;;5016249;28;20025;-77
2023/08/31 01:27:07;;;;;;;19.33;10.68;;;13.90;99.90;;;;;;5041210;28;20021;-79
2023/08/31 01:29:32;;;;;;;18.20;10.75;;;13.90;99.90;;;;;;5041628;28;20021;-79
2023/08/31 01:31:58;;;;;;;20.30;10.80;;;13.90;99.90;;;;;;5030762;28;20025;-77
2023/08/31 01:34:24;;;;;;;16.58;9.82;;;13.90;99.90;;;;;;5044336;28;20029;-77
2023/08/31 01:36:58;;;;;;;20.70;11.52;;;13.90;99.90;;;;;;5034420;28;20126;-77
2023/08/31 01:39:26;;;;;;;19.83;11.73;;;13.80;99.90;;;;;;5027015;28;20029;-77
2023/08/31 01:41:58;;;;;;;21.23;12.55;;;13.80;99.90;;;;;;5031847;28;20017;-77
2023/08/31 01:44:25;;;;;;;22.80;12.93;;;13.70;99.90;;;;;;5044652;28;20082;-79
2023/08/31 01:46:54;;;;;;;19.52;13.07;;;13.70;99.90;;;;;;5047334;28;20108;-77
2023/08/31 01:49:21;;;;;;;20.65;12.45;;;13.70;99.90;;;;;;5043550;28;20037;-77
2023/08/31 01:51:46;;;;;;;23.30;12.93;;;13.70;99.90;;;;;;5030033;28;20025;-79
2023/08/31 01:54:12;;;;;;;21.00;11.52;;;13.80;99.90;;;;;;5021933;28;20387;-77
2023/08/31 01:56:38;;;;;;;23.33;12.55;;;13.70;99.90;;;;;;5028973;28;20104;-79
2023/08/31 01:59:03;;;;;;;28.17;13.48;;;13.70;99.90;;;;;;5042167;28;20025;-77
2023/08/31 02:01:32;;;;;;;21.50;13.18;;;13.70;99.90;;;;;;5034138;28;20424;-78
2023/08/31 02:03:57;;;;;;;24.27;12.45;;;13.70;99.90;;;;;;5030297;28;20021;-80
2023/08/31 02:06:23;;;;;;;23.15;13.20;;;13.80;99.90;;;;;;5035229;28;20066;-77
2023/08/31 02:08:48;;;;;;;25.27;12.98;;;13.70;99.90;;;;;;5031463;28;20395;-77
2023/08/31 02:11:14;;;;;;;22.10;12.98;;;13.70;99.90;;;;;;5029845;28;20032;-80
2023/08/31 02:13:41;;;;;;;21.35;12.55;;;13.70;99.90;;;;;;5031579;28;20026;-77
2023/08/31 02:16:07;;;;;;;22.80;14.75;;;13.70;99.90;;;;;;5033824;28;20534;-80
2023/08/31 02:18:33;;;;;;;24.58;14.73;;;13.70;99.90;;;;;;5036379;28;20029;-80
2023/08/31 02:20:58;;;;;;;18.83;12.23;;;13.70;99.90;;;;;;5039627;28;20048;-77
2023/08/31 02:23:24;;;;;;;22.52;14.40;;;13.70;99.90;;;;;;5041948;28;20089;-79
2023/08/31 02:25:49;;;;;;;19.67;12.90;;;13.80;99.90;;;;;;5039323;28;20025;-78
2023/08/31 02:28:17;;;;;;;24.73;13.93;;;13.80;99.90;;;;;;5025776;28;20479;-79
2023/08/31 02:30:44;;;;;;;20.00;12.75;;;13.80;99.90;;;;;;5031961;28;20025;-77
2023/08/31 02:33:10;;;;;;;24.50;15.32;;;13.80;99.90;;;;;;5050462;28;20032;-78
2023/08/31 02:35:35;;;;;;;23.98;14.02;;;13.80;99.90;;;;;;5045764;28;20018;-79
2023/08/31 02:38:02;;;;;;;22.35;13.93;;;13.80;99.90;;;;;;5031097;28;20059;-78
2023/08/31 02:40:27;;;;;;;22.88;12.75;;;13.80;99.90;;;;;;5030924;28;20018;-79
2023/08/31 02:42:53;;;;;;;21.48;13.35;;;13.80;99.90;;;;;;5030921;28;20524;-79
2023/08/31 02:45:19;;;;;;;27.58;14.48;;;13.80;99.90;;;;;;5030886;28;20021;-79
2023/08/31 02:47:44;;;;;;;22.67;13.90;;;13.80;99.90;;;;;;5029941;28;20030;-77
2023/08/31 02:50:10;;;;;;;20.95;13.48;;;13.80;99.90;;;;;;5031146;28;20041;-78
2023/08/31 02:52:35;;;;;;;21.38;13.45;;;13.80;99.90;;;;;;5028798;28;20025;-78
2023/08/31 02:55:01;;;;;;;19.65;13.30;;;13.80;99.90;;;;;;5029546;28;20021;-79
2023/08/31 02:57:27;;;;;;;24.33;12.80;;;13.80;99.90;;;;;;5029722;28;20497;-77
2023/08/31 02:59:52;;;;;;;23.48;13.35;;;13.80;99.90;;;;;;5029333;28;20070;-79
2023/08/31 03:02:18;;;;;;;28.23;15.95;;;13.70;99.90;;;;;;5029367;28;20021;-79
2023/08/31 03:04:44;;;;;;;24.83;14.25;;;13.70;99.90;;;;;;5030429;28;20022;-77
2023/08/31 03:07:13;;;;;;;28.55;15.90;;;13.70;99.90;;;;;;5029213;28;20032;-79
2023/08/31 03:09:39;;;;;;;28.98;15.90;;;13.70;99.90;;;;;;5032923;28;20033;-77
2023/08/31 03:12:05;;;;;;;30.08;14.75;;;13.70;99.90;;;;;;5048346;28;20021;-77
2023/08/31 03:14:30;;;;;;;26.63;15.95;;;13.70;99.90;;;;;;5044056;28;20068;-79
2023/08/31 03:16:56;;;;;;;28.55;15.35;;;13.70;99.90;;;;;;5043810;28;20025;-77
2023/08/31 03:19:22;;;;;;;29.05;14.90;;;13.70;99.90;;;;;;5029215;28;20078;-79
2023/08/31 03:21:48;;;;;;;26.27;14.98;;;13.70;99.90;;;;;;5029095;28;20097;-77
2023/08/31 03:24:13;;;;;;;23.52;13.95;;;13.70;99.90;;;;;;5042295;28;20046;-77
2023/08/31 03:26:39;;;;;;;28.63;16.13;;;13.70;99.90;;;;;;5029020;28;20091;-79
2023/08/31 03:29:05;;;;;;;27.08;17.40;;;13.70;99.90;;;;;;5016289;28;20013;-79
2023/08/31 03:31:31;;;;;;;27.90;15.60;;;13.70;99.90;;;;;;5029038;28;20068;-79
2023/08/31 03:33:57;;;;;;;27.27;15.77;;;13.70;99.90;;;;;;5028952;28;20018;-78
2023/08/31 03:36:23;;;;;;;28.15;14.95;;;13.60;99.90;;;;;;5029811;28;20433;-77
2023/08/31 03:38:49;;;;;;;25.17;15.48;;;13.60;99.90;;;;;;5028775;28;20463;-79
2023/08/31 03:41:15;;;;;;;24.33;14.70;;;13.60;99.90;;;;;;5030196;28;20066;-78
2023/08/31 03:43:40;;;;;;;30.65;17.55;;;13.70;99.90;;;;;;5029651;28;20022;-77
2023/08/31 03:46:06;;;;;;;29.73;16.08;;;13.60;99.90;;;;;;5030366;28;20052;-77
2023/08/31 03:48:32;;;;;;;29.83;17.25;;;13.60;99.90;;;;;;5028731;28;20022;-77
2023/08/31 03:50:57;;;;;;;29.73;16.30;;;13.60;99.90;;;;;;5029823;28;20048;-77
2023/08/31 03:53:23;;;;;;;30.20;15.63;;;13.60;99.90;;;;;;5028738;28;20102;-79
2023/08/31 03:55:49;;;;;;;29.75;16.98;;;13.60;99.90;;;;;;5030032;28;20106;-79
2023/08/31 03:58:14;;;;;;;32.38;17.52;;;13.60;99.90;;;;;;5029679;28;20029;-77
2023/08/31 04:00:40;;;;;;;35.17;17.00;;;13.60;99.90;;;;;;5043109;28;20021;-77
2023/08/31 04:03:06;;;;;;;32.25;19.63;;;13.60;99.90;;;;;;5028306;28;20050;-79
2023/08/31 04:05:35;;;;;;;33.90;18.65;;;13.60;99.90;;;;;;5028600;28;20022;-77
2023/08/31 04:08:02;;;;;;;35.50;19.05;;;13.60;99.90;;;;;;5025629;28;20393;-77
2023/08/31 04:10:29;;;;;;;39.78;19.20;;;13.60;99.90;;;;;;5036844;28;20082;-79
2023/08/31 04:12:55;;;;;;;40.50;21.35;;;13.50;99.90;;;;;;5046536;28;20069;-79
2023/08/31 04:15:21;;;;;;;36.67;19.90;;;13.50;99.90;;;;;;5030380;28;20022;-79
2023/08/31 04:17:46;;;;;;;37.42;20.00;;;13.50;99.90;;;;;;5040620;28;20028;-77
2023/08/31 04:20:12;;;;;;;35.70;18.40;;;13.50;99.90;;;;;;5042951;28;20108;-79
2023/08/31 04:22:38;;;;;;;36.15;20.65;;;13.50;99.90;;;;;;5047806;28;20048;-77
2023/08/31 04:25:04;;;;;;;34.20;18.30;;;13.50;99.90;;;;;;5031854;28;20049;-80
2023/08/31 04:27:31;;;;;;;34.60;19.15;;;13.50;99.90;;;;;;5041386;28;20463;-77
2023/08/31 04:30:00;;;;;;;33.47;19.60;;;13.50;99.90;;;;;;5018487;28;20465;-79
2023/08/31 04:32:26;;;;;;;39.03;21.02;;;13.50;99.90;;;;;;5042473;28;20026;-77
2023/08/31 04:34:52;;;;;;;39.90;20.77;;;13.50;99.90;;;;;;5028100;28;20116;-77
2023/08/31 04:37:17;;;;;;;38.58;23.33;;;13.50;99.90;;;;;;5027906;28;20137;-79
2023/08/31 04:39:43;;;;;;;46.78;27.45;;;13.50;99.90;;;;;;5029624;28;20475;-77
2023/08/31 04:42:09;;;;;;;47.00;27.48;;;13.50;99.90;;;;;;5027610;28;20028;-80
2023/08/31 04:44:35;;;;;;;53.50;28.45;;;13.50;99.90;;;;;;5029353;28;20082;-80
2023/08/31 04:47:00;;;;;;;56.20;28.20;;;13.50;99.90;;;;;;5028025;28;20022;-77
2023/08/31 04:49:26;;;;;;;51.58;26.25;;;13.60;99.90;;;;;;5028984;28;20423;-77
2023/08/31 04:51:53;;;;;;;54.53;27.60;;;13.60;99.90;;;;;;5033211;28;20026;-77
2023/08/31 04:54:18;;;;;;;59.50;28.15;;;13.60;99.90;;;;;;5032731;28;20115;-77
2023/08/31 04:56:44;;;;;;;57.50;28.10;;;13.50;99.90;;;;;;5034647;28;20018;-77
2023/08/31 04:59:10;;;;;;;66.55;30.77;;;13.60;99.90;;;;;;5033820;28;20547;-79
2023/08/31 05:01:35;;;;;;;58.30;30.67;;;13.60;99.90;;;;;;5034468;28;20528;-80
2023/08/31 05:04:03;;;;;;;60.33;28.88;;;13.60;99.90;;;;;;5038766;28;20029;-77
2023/08/31 05:06:28;;;;;;;55.35;27.38;;;13.60;99.90;;;;;;5036603;28;20082;-79
2023/08/31 05:08:54;;;;;;;59.92;29.17;;;13.70;99.90;;;;;;5041023;28;20420;-77
2023/08/31 05:11:20;;;;;;;54.28;28.05;;;13.70;99.90;;;;;;5030144;28;20057;-77
2023/08/31 05:13:47;;;;;;;59.13;29.05;;;13.70;99.90;;;;;;5032305;28;20379;-76
2023/08/31 05:16:13;;;;;;;66.03;29.27;;;13.70;99.90;;;;;;5029904;28;20360;-77
2023/08/31 05:18:40;;;;;;;56.03;26.98;;;13.70;99.90;;;;;;5030534;28;20054;-79
2023/08/31 05:21:05;;;;;;;56.60;29.15;;;13.70;99.90;;;;;;5045693;28;20017;-79
2023/08/31 05:23:31;;;;;;;64.25;30.50;;;13.80;99.90;;;;;;5036362;28;20037;-80
2023/08/31 05:25:57;;;;;;;56.58;29.05;;;13.80;99.90;;;;;;5048192;28;20028;-79
2023/08/31 05:28:23;;;;;;;52.67;27.55;;;13.80;99.90;;;;;;5022219;28;20464;-80
2023/08/31 05:30:55;;;;;;;57.05;28.58;;;13.90;99.90;;;;;;5025760;28;20077;-80
2023/08/31 05:33:22;;;;;;;57.13;29.38;;;13.80;99.90;;;;;;5019208;28;20040;-80
2023/08/31 05:35:48;;;;;;;53.70;26.50;;;13.90;99.90;;;;;;5022129;28;20014;-80
2023/08/31 05:38:13;;;;;;;51.95;27.52;;;13.90;99.90;;;;;;5025425;28;20083;-80
2023/08/31 05:40:45;;;;;;;60.63;32.10;;;13.90;99.90;;;;;;5037083;28;20052;-80
2023/08/31 05:43:12;;;;;;;46.03;25.43;;;14.00;99.90;;;;;;5033260;28;20049;-77
2023/08/31 05:45:37;;;;;;;53.00;27.83;;;14.00;99.90;;;;;;5031615;28;20264;-80
2023/08/31 05:48:03;;;;;;;57.42;28.75;;;14.10;99.90;;;;;;5030958;28;20061;-80
2023/08/31 05:50:30;;;;;;;51.90;28.20;;;14.10;99.90;;;;;;5035732;28;20053;-81
2023/08/31 05:52:55;;;;;;;55.63;29.25;;;14.10;99.90;;;;;;5025176;28;20025;-81
2023/08/31 05:55:21;;;;;;;58.72;28.67;;;14.20;99.90;;;;;;5017894;28;20030;-81
2023/08/31 05:57:47;;;;;;;56.20;28.88;;;14.10;99.90;;;;;;5022582;28;20075;-80
2023/08/31 06:00:13;;;;;;;55.30;27.23;;;14.20;99.90;;;;;;5020125;28;20025;-81
2023/08/31 06:02:38;;;;;;;54.17;28.05;;;14.20;99.90;;;;;;5038599;28;20071;-80
2023/08/31 06:05:05;;;;;;;52.67;28.67;;;14.30;99.90;;;;;;5031488;28;20022;-80
2023/08/31 06:07:31;;;;;;;52.45;30.17;;;14.30;99.90;;;;;;5033247;28;20022;-77
2023/08/31 06:09:57;;;;;;;53.88;29.58;;;14.30;99.90;;;;;;5036357;28;20033;-77
2023/08/31 06:12:22;;;;;;;57.70;29.80;;;14.50;99.90;;;;;;5031673;28;20382;-79
2023/08/31 06:14:48;;;;;;;55.67;31.63;;;14.60;99.90;;;;;;5033847;28;20077;-80
2023/08/31 06:17:14;;;;;;;59.30;33.55;;;14.80;99.90;;;;;;5031563;28;20025;-77
2023/08/31 06:19:41;;;;;;;65.13;34.53;;;14.90;99.90;;;;;;5030145;28;20025;-79
2023/08/31 06:22:07;;;;;;;68.00;35.42;;;15.00;99.90;;;;;;5032548;28;20066;-78
2023/08/31 06:24:32;;;;;;;59.95;34.92;;;15.10;99.90;;;;;;5027773;28;20461;-77
2023/08/31 06:26:58;;;;;;;67.78;37.05;;;15.20;99.90;;;;;;5027059;28;20106;-80
2023/08/31 06:29:24;;;;;;;62.17;37.90;;;15.20;99.90;;;;;;5014640;28;20055;-77
2023/08/31 06:31:49;;;;;;;65.60;36.92;;;15.30;99.90;;;;;;5025886;28;20029;-77
2023/08/31 06:34:15;;;;;;;62.72;36.97;;;15.30;99.90;;;;;;5025891;28;20024;-77
2023/08/31 06:36:41;;;;;;;62.92;37.33;;;15.30;99.90;;;;;;5027276;28;20095;-77
2023/08/31 06:39:07;;;;;;;55.72;34.28;;;15.40;99.90;;;;;;5029145;28;20070;-80
2023/08/31 06:41:33;;;;;;;50.83;32.40;;;15.40;99.90;;;;;;5043355;28;20028;-80
2023/08/31 06:43:59;;;;;;;46.22;29.55;;;15.50;99.90;;;;;;5043051;28;20017;-78
2023/08/31 06:46:24;;;;;;;42.33;26.70;;;15.50;99.90;;;;;;5043165;28;20029;-77
2023/08/31 06:48:50;;;;;;;39.40;25.55;;;15.50;99.90;;;;;;5049688;28;20447;-77
2023/08/31 06:51:16;;;;;;;33.67;24.15;;;15.50;99.90;;;;;;5048585;28;20085;-77
2023/08/31 06:53:44;;;;;;;25.50;19.25;;;15.60;99.90;;;;;;5049468;28;20029;-81
2023/08/31 06:56:10;;;;;;;29.85;19.88;;;15.60;99.90;;;;;;5037458;28;20025;-80
2023/08/31 06:58:36;;;;;;;26.27;17.42;;;15.70;99.90;;;;;;5041673;28;20031;-80
2023/08/31 07:01:05;;;;;;;24.17;16.60;;;15.70;99.90;;;;;;5043357;28;20081;-81
2023/08/31 07:03:31;;;;;;;20.23;15.13;;;15.80;99.90;;;;;;5037146;28;20036;-80
2023/08/31 07:05:57;;;;;;;22.30;15.32;;;15.90;99.90;;;;;;5049454;28;20466;-80
2023/08/31 07:08:22;;;;;;;25.52;16.95;;;16.00;99.90;;;;;;5029180;28;20032;-77
2023/08/31 07:10:50;;;;;;;31.35;19.83;;;16.20;99.90;;;;;;5029195;28;20538;-78
2023/08/31 07:13:16;;;;;;;36.85;23.45;;;16.40;99.90;;;;;;5016315;28;20026;-80
2023/08/31 07:15:41;;;;;;;34.40;23.75;;;16.50;99.90;;;;;;5030552;28;20036;-81
2023/08/31 07:18:07;;;;;;;29.17;19.10;;;16.80;99.90;;;;;;5035706;28;20017;-77
2023/08/31 07:20:33;;;;;;;28.10;18.38;;;17.10;99.90;;;;;;5048715;28;20033;-78
2023/08/31 07:22:59;;;;;;;29.30;18.20;;;17.30;99.90;;;;;;5030282;28;20030;-81
2023/08/31 07:25:25;;;;;;;22.00;16.77;;;17.50;99.90;;;;;;5029365;28;20018;-80
2023/08/31 07:27:51;;;;;;;24.02;17.05;;;17.50;99.90;;;;;;5024201;28;20018;-78
2023/08/31 07:30:17;;;;;;;20.00;16.00;;;17.40;99.90;;;;;;5022762;28;20033;-81
2023/08/31 07:32:42;;;;;;;22.27;14.48;;;17.40;99.90;;;;;;5029155;28;20386;-77
2023/08/31 07:35:08;;;;;;;19.77;14.10;;;17.30;99.90;;;;;;5030116;28;20056;-78
2023/08/31 07:37:34;;;;;;;18.48;13.02;;;17.20;99.90;;;;;;5029119;28;20490;-80
2023/08/31 07:40:00;;;;;;;19.75;12.90;;;17.10;99.90;;;;;;5030291;28;20014;-78
2023/08/31 07:42:25;;;;;;;18.30;13.35;;;17.10;99.90;;;;;;5030002;28;20383;-78
2023/08/31 07:44:51;;;;;;;16.13;11.50;;;17.20;99.90;;;;;;5030206;28;20033;-78
2023/08/31 07:47:16;;;;;;;13.45;10.77;;;17.10;99.90;;;;;;5029871;28;20077;-81
2023/08/31 07:49:42;;;;;;;12.30;9.98;;;17.10;99.90;;;;;;5029047;28;20048;-77
2023/08/31 07:52:07;;;;;;;13.85;10.27;;;17.20;99.90;;;;;;5029034;28;20021;-77
2023/08/31 07:54:33;;;;;;;12.77;9.75;;;17.20;99.90;;;;;;5028623;28;20041;-78
2023/08/31 07:57:00;;;;;;;11.25;9.48;;;17.30;99.90;;;;;;5030526;28;20449;-80
2023/08/31 07:59:25;;;;;;;10.90;8.65;;;17.30;99.90;;;;;;5030670;28;20386;-78
2023/08/31 08:01:51;;;;;;;11.77;7.70;;;17.30;99.90;;;;;;5028529;28;20024;-81
2023/08/31 08:04:19;;;;;;;9.30;6.40;;;17.40;99.90;;;;;;5028749;28;20021;-81
2023/08/31 08:06:45;;;;;;;9.13;7.03;;;17.40;99.90;;;;;;5029856;28;20013;-80
2023/08/31 08:09:11;;;;;;;6.78;6.07;;;17.30;99.90;;;;;;5030221;28;20029;-77
2023/08/31 08:11:37;;;;;;;6.55;5.50;;;17.30;99.90;;;;;;5029460;28;20476;-78
2023/08/31 08:14:03;;;;;;;6.55;5.40;;;17.40;99.90;;;;;;5028521;28;20033;-77
2023/08/31 08:16:29;;;;;;;6.38;5.43;;;17.50;99.90;;;;;;5029691;28;20022;-80
2023/08/31 08:18:54;;;;;;;6.57;5.97;;;17.60;99.90;;;;;;5028531;28;20021;-80
2023/08/31 08:21:20;;;;;;;5.35;4.85;;;17.70;99.90;;;;;;5029591;28;20022;-81
2023/08/31 08:23:46;;;;;;;7.38;4.60;;;17.90;99.90;;;;;;5028621;28;20060;-81
2023/08/31 08:26:11;;;;;;;6.07;5.35;;;17.90;99.90;;;;;;5029725;28;20443;-78
2023/08/31 08:28:37;;;;;;;6.78;5.35;;;17.90;99.90;;;;;;5018945;28;20033;-81
2023/08/31 08:31:05;;;;;;;6.72;3.70;;;18.00;99.90;;;;;;5044014;28;20078;-81
2023/08/31 08:33:31;;;;;;;5.25;3.55;;;18.10;99.90;;;;;;5045295;28;20056;-78
2023/08/31 08:35:58;;;;;;;4.53;3.78;;;18.10;99.90;;;;;;5038944;28;20091;-81
2023/08/31 08:38:23;;;;;;;4.97;3.17;;;18.10;99.90;;;;;;5050127;28;20021;-78
2023/08/31 08:40:49;;;;;;;4.38;3.30;;;18.20;99.90;;;;;;5038030;28;20038;-81
2023/08/31 08:43:14;;;;;;;4.55;3.35;;;18.30;99.90;;;;;;5039130;28;20073;-81
2023/08/31 08:45:42;;;;;;;4.07;3.22;;;18.30;99.90;;;;;;5032847;28;20108;-78
2023/08/31 08:48:08;;;;;;;3.60;3.30;;;18.30;99.90;;;;;;5044906;28;20051;-78
2023/08/31 08:50:36;;;;;;;4.70;3.00;;;18.30;99.90;;;;;;5027873;28;20041;-78
2023/08/31 08:53:03;;;;;;;3.80;2.70;;;18.40;99.90;;;;;;5018923;28;20030;-81
2023/08/31 08:55:29;;;;;;;3.42;2.78;;;18.40;99.90;;;;;;5040123;28;20025;-80
2023/08/31 08:57:57;;;;;;;4.20;2.80;;;18.60;99.90;;;;;;5038105;28;20033;-78
2023/08/31 09:00:23;;;;;;;6.05;2.97;;;18.60;99.90;;;;;;5040764;28;20026;-78
2023/08/31 09:02:48;;;;;;;4.72;3.75;;;18.60;99.90;;;;;;5047536;28;20025;-81
2023/08/31 09:05:15;;;;;;;7.03;3.20;;;18.60;99.90;;;;;;5031213;28;20130;-78
2023/08/31 09:08:09;;;;;;;4.05;3.03;;;18.60;99.90;;;;;;5043145;28;20033;-78
2023/08/31 09:10:37;;;;;;;3.55;3.25;;;18.60;99.90;;;;;;5042896;28;20040;-78
2023/08/31 09:13:08;;;;;;;3.72;3.40;;;18.80;99.90;;;;;;5037954;28;20021;-81
2023/08/31 09:15:41;;;;;;;2.92;2.67;;;19.00;99.90;;;;;;5038478;28;20096;-78
2023/08/31 09:18:07;;;;;;;4.30;3.63;;;19.10;99.90;;;;;;5026171;28;20419;-81
2023/08/31 09:20:48;;;;;;;4.70;3.10;;;19.30;99.90;;;;;;5037704;28;20096;-78
2023/08/31 09:23:15;;;;;;;3.40;3.10;;;19.40;99.90;;;;;;5039889;28;20028;-81
2023/08/31 09:25:45;;;;;;;2.72;2.53;;;19.50;99.90;;;;;;5034920;28;20076;-80
2023/08/31 09:28:13;;;;;;;2.72;2.53;;;19.50;99.50;;;;;;5029426;28;20086;-80
2023/08/31 09:30:40;;;;;;;5.47;2.80;;;19.50;99.90;;;;;;5032431;28;20045;-80
2023/08/31 09:33:08;;;;;;;2.72;2.53;;;19.60;99.90;;;;;;5032272;28;20466;-78
2023/08/31 09:35:38;;;;;;;2.45;2.25;;;19.50;99.90;;;;;;5019873;28;20013;-81
2023/08/31 09:38:07;;;;;;;3.03;2.42;;;19.50;98.20;;;;;;5032013;28;20428;-81
2023/08/31 09:40:33;;;;;;;2.22;2.00;;;19.60;99.90;;;;;;5028952;28;20052;-78
2023/08/31 09:42:58;;;;;;;5.10;2.28;;;19.50;99.90;;;;;;5043308;28;20454;-79
2023/08/31 09:45:31;;;;;;;2.33;2.13;;;19.70;99.90;;;;;;5032445;28;20022;-81
2023/08/31 09:48:01;;;;;;;3.85;2.45;;;20.00;99.20;;;;;;5030665;28;20021;-81
2023/08/31 09:50:30;;;;;;;2.72;2.38;;;20.10;95.30;;;;;;5031549;28;20029;-78
2023/08/31 09:53:00;;;;;;;2.85;2.33;;;20.30;95.20;;;;;;5031940;28;20025;-81
2023/08/31 09:55:29;;;;;;;2.63;2.00;;;20.20;87.00;;;;;;5031425;28;20397;-81
2023/08/31 09:57:58;;;;;;;2.72;2.53;;;20.20;89.60;;;;;;5031451;28;20061;-79
2023/08/31 10:00:26;;;;;;;2.80;2.20;;;20.10;88.20;;;;;;5030471;28;20420;-79
2023/08/31 10:03:00;;;;;;;3.00;2.28;;;20.10;88.90;;;;;;5030346;28;20042;-81
2023/08/31 10:05:26;;;;;;;2.40;2.28;;;20.30;89.90;;;;;;5031940;28;20050;-79
2023/08/31 10:07:52;;;;;;;3.40;2.17;;;20.40;87.00;;;;;;5030478;28;20061;-81
2023/08/31 10:10:18;;;;;;;4.13;2.40;;;20.40;82.90;;;;;;5030844;28;20060;-79
2023/08/31 10:12:49;;;;;;;2.25;2.05;;;20.30;82.90;;;;;;5032065;28;20024;-79
2023/08/31 10:15:16;;;;;;;3.15;2.20;;;20.60;83.50;;;;;;5031562;28;20024;-79
2023/08/31 10:17:42;;;;;;;4.05;2.38;;;20.60;85.30;;;;;;5031155;28;20402;-82
2023/08/31 10:20:10;;;;;;;3.15;2.38;;;20.50;82.10;;;;;;5032543;28;20029;-81
2023/08/31 10:22:37;;;;;;;2.53;2.17;;;20.70;80.30;;;;;;5031059;28;20025;-79
2023/08/31 10:25:05;;;;;;;3.33;2.17;;;20.80;81.80;;;;;;5031519;28;20022;-79
2023/08/31 10:27:42;;;;;;;4.18;2.80;;;21.10;84.50;;;;;;5028443;28;20022;-79
2023/08/31 10:30:23;;;;;;;2.78;2.13;;;21.10;78.90;;;;;;5025137;28;20174;-81
2023/08/31 10:33:07;;;;;;;4.72;2.67;;;21.10;82.30;;;;;;5026844;28;20021;-79
2023/08/31 10:35:48;;;;;;;4.40;3.38;;;21.30;82.20;;;;;;5032776;28;20386;-81
2023/08/31 10:38:31;;;;;;;5.18;4.53;;;21.30;81.00;;;;;;5029883;28;20086;-82
2023/08/31 10:41:02;;;;;;;3.78;3.08;;;21.40;78.90;;;;;;5034621;28;20110;-79
2023/08/31 10:43:47;;;;;;;3.70;2.77;;;21.20;75.60;;;;;;5026589;28;20033;-79
2023/08/31 10:46:28;;;;;;;3.33;3.00;;;21.30;76.00;;;;;;5029781;28;20471;-82
2023/08/31 10:48:58;;;;;;;3.83;3.17;;;21.10;74.30;;;;;;5057113;28;20765;-79
2023/08/31 10:51:26;;;;;;;4.05;3.65;;;21.20;73.70;;;;;;5049083;28;20441;-82
2023/08/31 10:53:52;;;;;;;6.45;2.83;;;21.20;78.70;;;;;;5034815;28;20112;-79
2023/08/31 10:56:20;;;;;;;2.58;2.38;;;21.40;77.60;;;;;;5030685;28;20116;-82
2023/08/31 10:59:01;;;;;;;3.35;2.97;;;21.60;73.90;;;;;;5031010;28;20463;-81
2023/08/31 11:01:55;;;;;;;3.97;2.80;;;21.70;72.50;;;;;;5032972;28;20029;-79
2023/08/31 11:04:25;;;;;;;2.63;2.10;;;21.80;71.40;;;;;;5036359;28;20390;-79
2023/08/31 11:07:17;;;;;;;2.90;2.58;;;21.70;68.20;;;;;;5019025;28;20698;-82
2023/08/31 11:09:44;;;;;;;3.97;2.83;;;21.90;68.30;;;;;;5038460;28;20041;-81
2023/08/31 11:12:10;;;;;;;2.33;2.13;;;21.90;66.60;;;;;;5048430;28;20027;-79
2023/08/31 11:14:36;;;;;;;4.63;2.65;;;22.10;68.20;;;;;;5039680;28;20018;-79
2023/08/31 11:17:04;;;;;;;3.45;2.38;;;22.00;68.80;;;;;;5042889;28;20484;-82
2023/08/31 11:19:31;;;;;;;2.88;2.67;;;22.00;69.70;;;;;;5036495;28;20061;-82
2023/08/31 11:21:57;;;;;;;2.80;2.40;;;21.90;69.80;;;;;;5048910;28;20115;-82
2023/08/31 11:24:23;;;;;;;2.70;2.10;;;21.80;66.10;;;;;;5031753;28;20100;-82
2023/08/31 11:26:50;;;;;;;4.00;3.17;;;21.70;67.50;;;;;;5028751;28;20013;-82
2023/08/31 11:29:16;;;;;;;3.72;3.15;;;21.80;67.60;;;;;;5017971;28;20125;-82
2023/08/31 11:31:41;;;;;;;2.20;2.05;;;21.70;67.30;;;;;;5030235;28;20402;-82
2023/08/31 11:34:18;;;;;;;2.58;2.20;;;21.90;65.80;;;;;;5028743;28;20022;-82
2023/08/31 11:36:45;;;;;;;2.53;2.38;;;21.80;64.50;;;;;;5030325;28;20077;-80
2023/08/31 11:39:12;;;;;;;3.33;2.47;;;21.70;65.20;;;;;;5017285;28;20037;-79
2023/08/31 11:41:41;;;;;;;2.38;2.17;;;21.60;65.60;;;;;;5028557;28;20478;-82
2023/08/31 11:44:12;;;;;;;2.58;2.22;;;21.60;66.60;;;;;;5028769;28;20533;-82
2023/08/31 11:46:39;;;;;;;3.40;2.10;;;21.50;67.30;;;;;;5038295;28;20108;-81
2023/08/31 11:49:06;;;;;;;2.88;2.58;;;21.60;69.00;;;;;;5044179;28;20009;-81
2023/08/31 11:51:34;;;;;;;4.97;2.80;;;21.60;70.20;;;;;;5057330;28;20109;-82
2023/08/31 11:54:02;;;;;;;2.10;1.90;;;21.50;67.40;;;;;;5029096;28;21065;-78
2023/08/31 11:56:38;;;;;;;3.05;2.40;;;21.50;69.20;;;;;;5028569;28;20018;-81
2023/08/31 11:59:08;;;;;;;3.42;2.42;;;21.70;71.00;;;;;;5028029;28;20030;-81
2023/08/31 12:01:40;;;;;;;4.30;2.50;;;21.70;67.00;;;;;;5026465;28;20078;-78
2023/08/31 12:04:10;;;;;;;;;;;21.50;66.80;;;;;;5009727;28;20022;-78
2023/08/31 12:06:35;;;;;;;3.15;2.92;;;21.30;67.40;;;;;;5028280;28;20324;-81
2023/08/31 12:09:01;;;;;;;2.78;2.47;;;21.50;67.50;;;;;;5041795;28;20037;-82
2023/08/31 12:11:27;;;;;;;2.85;2.65;;;21.70;67.90;;;;;;5043480;28;20064;-79
2023/08/31 12:13:52;;;;;;;4.20;2.70;;;21.50;65.20;;;;;;5040172;28;20029;-79
2023/08/31 12:16:18;;;;;;;2.60;2.40;;;21.50;66.80;;;;;;5047165;28;20094;-78
2023/08/31 12:18:43;;;;;;;3.42;2.20;;;21.70;67.10;;;;;;5040880;28;20022;-78
2023/08/31 12:21:09;;;;;;;2.72;2.00;;;21.90;65.10;;;;;;5032723;28;20017;-82
2023/08/31 12:23:35;;;;;;;6.78;4.75;;;22.00;63.50;;;;;;5049173;28;20025;-81
2023/08/31 12:26:02;;;;;;;2.53;2.33;;;22.20;67.00;;;;;;5031079;28;20026;-82
2023/08/31 12:28:28;;;;;;;7.25;2.40;;;22.00;63.90;;;;;;5037274;28;20114;-82
2023/08/31 12:30:56;;;;;;;2.65;2.45;;;22.00;64.10;;;;;;5032618;28;20066;-82
2023/08/31 12:33:22;;;;;;;2.25;2.15;;;22.30;64.20;;;;;;5047544;28;20470;-79
2023/08/31 12:35:48;;;;;;;4.28;3.13;;;22.40;63.60;;;;;;5041939;28;20020;-80
2023/08/31 12:38:14;;;;;;;2.63;2.42;;;22.30;63.70;;;;;;5028102;28;20029;-76